sensor_id;sensor_type;location;lat;lon;timestamp;temperature;humidity
23957;DHT22;12165;45.458;11.062;2022-09-09T00:01:22;21.00;99.90
23957;DHT22;12165;45.458;11.062;2022-09-09T00:03:54;21.00;99.90
23957;DHT22;12165;45.458;11.062;2022-09-09T00:06:24;21.00;99.90
23957;DHT22;12165;45.458;11.062;2022-09-09T00:11:40;20.90;99.90
23957;DHT22;12165;45.458;11.062;2022-09-09T00:14:21;20.80;99.90
23957;DHT22;12165;45.458;11.062;2022-09-09T00:16:51;20.70;99.90
23957;DHT22;12165;45.458;11.062;2022-09-09T00:19:22;20.60;99.90
23957;DHT22;12165;45.458;11.062;2022-09-09T00:22:32;20.60;99.90
23957;DHT22;12165;45.458;11.062;2022-09-09T00:27:16;20.50;99.90
23957;DHT22;12165;45.458;11.062;2022-09-09T00:29:45;20.60;99.90
23957;DHT22;12165;45.458;11.062;2022-09-09T00:32:14;20.60;99.90
23957;DHT22;12165;45.458;11.062;2022-09-09T00:37:28;20.50;99.90
23957;DHT22;12165;45.458;11.062;2022-09-09T00:39:59;20.50;99.90
23957;DHT22;12165;45.458;11.062;2022-09-09T00:42:29;20.40;99.90
23957;DHT22;12165;45.458;11.062;2022-09-09T00:45:02;20.30;99.90
23957;DHT22;12165;45.458;11.062;2022-09-09T00:47:44;20.20;99.90
23957;DHT22;12165;45.458;11.062;2022-09-09T00:52:50;20.10;99.90
23957;DHT22;12165;45.458;11.062;2022-09-09T00:55:28;20.20;99.90
23957;DHT22;12165;45.458;11.062;2022-09-09T00:58:00;20.20;99.90
23957;DHT22;12165;45.458;11.062;2022-09-09T01:00:27;20.20;99.90
23957;DHT22;12165;45.458;11.062;2022-09-09T01:07:56;20.00;99.90
23957;DHT22;12165;45.458;11.062;2022-09-09T01:13:15;20.10;99.90
23957;DHT22;12165;45.458;11.062;2022-09-09T01:15:43;20.30;99.90
23957;DHT22;12165;45.458;11.062;2022-09-09T01:18:12;20.30;99.90
23957;DHT22;12165;45.458;11.062;2022-09-09T01:23:25;20.20;99.90
23957;DHT22;12165;45.458;11.062;2022-09-09T01:26:15;20.20;99.90
23957;DHT22;12165;45.458;11.062;2022-09-09T01:28:44;20.30;99.90
23957;DHT22;12165;45.458;11.062;2022-09-09T01:31:18;20.20;99.90
23957;DHT22;12165;45.458;11.062;2022-09-09T01:33:47;20.20;99.90
23957;DHT22;12165;45.458;11.062;2022-09-09T01:36:23;20.10;99.90
23957;DHT22;12165;45.458;11.062;2022-09-09T01:38:52;20.20;99.90
23957;DHT22;12165;45.458;11.062;2022-09-09T01:41:19;20.20;99.90
23957;DHT22;12165;45.458;11.062;2022-09-09T01:44:07;20.10;99.90
23957;DHT22;12165;45.458;11.062;2022-09-09T01:46:36;20.10;99.90
23957;DHT22;12165;45.458;11.062;2022-09-09T01:49:06;20.20;99.90
23957;DHT22;12165;45.458;11.062;2022-09-09T01:51:34;20.10;99.90
23957;DHT22;12165;45.458;11.062;2022-09-09T01:54:04;20.10;99.90
23957;DHT22;12165;45.458;11.062;2022-09-09T01:59:21;20.10;99.90
23957;DHT22;12165;45.458;11.062;2022-09-09T02:02:13;20.20;99.90
23957;DHT22;12165;45.458;11.062;2022-09-09T02:04:54;20.20;99.90
23957;DHT22;12165;45.458;11.062;2022-09-09T02:07:43;20.20;99.90
23957;DHT22;12165;45.458;11.062;2022-09-09T02:10:24;20.20;99.90
23957;DHT22;12165;45.458;11.062;2022-09-09T02:13:10;20.30;99.90
23957;DHT22;12165;45.458;11.062;2022-09-09T02:18:46;20.30;99.90
23957;DHT22;12165;45.458;11.062;2022-09-09T02:21:15;20.30;99.90
23957;DHT22;12165;45.458;11.062;2022-09-09T02:23:43;20.30;99.90
23957;DHT22;12165;45.458;11.062;2022-09-09T02:26:12;20.30;99.90
23957;DHT22;12165;45.458;11.062;2022-09-09T02:28:49;20.20;99.90
23957;DHT22;12165;45.458;11.062;2022-09-09T02:31:17;20.30;99.90
23957;DHT22;12165;45.458;11.062;2022-09-09T02:33:51;20.30;99.90
23957;DHT22;12165;45.458;11.062;2022-09-09T02:36:19;20.30;99.90
23957;DHT22;12165;45.458;11.062;2022-09-09T02:38:48;20.20;99.90
23957;DHT22;12165;45.458;11.062;2022-09-09T02:41:33;20.20;99.90
23957;DHT22;12165;45.458;11.062;2022-09-09T02:44:00;20.20;99.90
23957;DHT22;12165;45.458;11.062;2022-09-09T02:49:25;20.00;99.90
23957;DHT22;12165;45.458;11.062;2022-09-09T02:52:04;19.90;99.90
23957;DHT22;12165;45.458;11.062;2022-09-09T02:54:34;20.00;99.90
23957;DHT22;12165;45.458;11.062;2022-09-09T02:57:08;20.00;99.90
23957;DHT22;12165;45.458;11.062;2022-09-09T02:59:40;20.00;99.90
23957;DHT22;12165;45.458;11.062;2022-09-09T03:02:08;20.00;99.90
23957;DHT22;12165;45.458;11.062;2022-09-09T03:04:37;20.00;99.90
23957;DHT22;12165;45.458;11.062;2022-09-09T03:07:04;20.00;99.90
23957;DHT22;12165;45.458;11.062;2022-09-09T03:09:31;20.00;99.90
23957;DHT22;12165;45.458;11.062;2022-09-09T03:11:59;20.00;99.90
23957;DHT22;12165;45.458;11.062;2022-09-09T03:14:28;20.10;99.90
23957;DHT22;12165;45.458;11.062;2022-09-09T03:16:54;20.20;99.90
23957;DHT22;12165;45.458;11.062;2022-09-09T03:19:23;20.30;99.90
23957;DHT22;12165;45.458;11.062;2022-09-09T03:21:51;20.60;99.90
23957;DHT22;12165;45.458;11.062;2022-09-09T03:24:18;21.10;99.90
23957;DHT22;12165;45.458;11.062;2022-09-09T03:26:45;21.50;99.90
23957;DHT22;12165;45.458;11.062;2022-09-09T03:29:15;21.80;99.90
23957;DHT22;12165;45.458;11.062;2022-09-09T03:31:42;21.80;99.90
23957;DHT22;12165;45.458;11.062;2022-09-09T03:34:09;21.90;99.90
23957;DHT22;12165;45.458;11.062;2022-09-09T03:36:36;21.90;99.90
23957;DHT22;12165;45.458;11.062;2022-09-09T03:39:04;22.10;99.90
23957;DHT22;12165;45.458;11.062;2022-09-09T03:41:31;22.20;99.90
23957;DHT22;12165;45.458;11.062;2022-09-09T03:44:00;22.10;99.90
23957;DHT22;12165;45.458;11.062;2022-09-09T03:46:30;22.00;99.90
23957;DHT22;12165;45.458;11.062;2022-09-09T03:48:58;22.10;99.90
23957;DHT22;12165;45.458;11.062;2022-09-09T03:51:25;22.20;99.90
23957;DHT22;12165;45.458;11.062;2022-09-09T03:53:52;22.00;99.90
23957;DHT22;12165;45.458;11.062;2022-09-09T03:56:22;22.00;99.90
23957;DHT22;12165;45.458;11.062;2022-09-09T03:58:49;21.90;99.90
23957;DHT22;12165;45.458;11.062;2022-09-09T04:01:15;21.80;99.90
23957;DHT22;12165;45.458;11.062;2022-09-09T04:03:45;21.70;99.90
23957;DHT22;12165;45.458;11.062;2022-09-09T04:06:12;21.50;99.90
23957;DHT22;12165;45.458;11.062;2022-09-09T04:08:44;21.40;99.90
23957;DHT22;12165;45.458;11.062;2022-09-09T04:11:13;21.10;99.90
23957;DHT22;12165;45.458;11.062;2022-09-09T04:13:40;21.00;99.90
23957;DHT22;12165;45.458;11.062;2022-09-09T04:16:11;20.90;99.90
23957;DHT22;12165;45.458;11.062;2022-09-09T04:18:40;20.80;99.90
23957;DHT22;12165;45.458;11.062;2022-09-09T04:21:08;20.80;99.90
23957;DHT22;12165;45.458;11.062;2022-09-09T04:23:35;20.80;99.90
23957;DHT22;12165;45.458;11.062;2022-09-09T04:26:03;20.70;99.90
23957;DHT22;12165;45.458;11.062;2022-09-09T04:28:33;20.60;99.90
23957;DHT22;12165;45.458;11.062;2022-09-09T04:31:04;20.60;99.90
23957;DHT22;12165;45.458;11.062;2022-09-09T04:33:31;20.50;99.90
23957;DHT22;12165;45.458;11.062;2022-09-09T04:36:03;20.60;99.90
23957;DHT22;12165;45.458;11.062;2022-09-09T04:38:31;20.60;99.90
23957;DHT22;12165;45.458;11.062;2022-09-09T04:40:58;20.50;99.90
23957;DHT22;12165;45.458;11.062;2022-09-09T04:43:26;20.50;99.90
23957;DHT22;12165;45.458;11.062;2022-09-09T04:45:58;20.50;99.90
23957;DHT22;12165;45.458;11.062;2022-09-09T04:48:28;20.50;99.90
23957;DHT22;12165;45.458;11.062;2022-09-09T04:50:56;20.60;99.90
23957;DHT22;12165;45.458;11.062;2022-09-09T04:53:24;20.60;99.90
23957;DHT22;12165;45.458;11.062;2022-09-09T04:56:02;20.60;99.90
23957;DHT22;12165;45.458;11.062;2022-09-09T04:58:31;20.60;99.90
23957;DHT22;12165;45.458;11.062;2022-09-09T05:01:02;20.80;99.90
23957;DHT22;12165;45.458;11.062;2022-09-09T05:03:29;21.10;99.90
23957;DHT22;12165;45.458;11.062;2022-09-09T05:06:09;21.10;99.90
23957;DHT22;12165;45.458;11.062;2022-09-09T05:08:37;21.10;99.90
23957;DHT22;12165;45.458;11.062;2022-09-09T05:11:13;21.10;99.90
23957;DHT22;12165;45.458;11.062;2022-09-09T05:13:40;21.00;99.90
23957;DHT22;12165;45.458;11.062;2022-09-09T05:16:07;21.10;99.90
23957;DHT22;12165;45.458;11.062;2022-09-09T05:18:38;21.10;99.90
23957;DHT22;12165;45.458;11.062;2022-09-09T05:21:05;21.10;99.90
23957;DHT22;12165;45.458;11.062;2022-09-09T05:23:33;21.10;99.90
23957;DHT22;12165;45.458;11.062;2022-09-09T05:26:02;21.20;99.90
23957;DHT22;12165;45.458;11.062;2022-09-09T05:28:29;21.50;99.90
23957;DHT22;12165;45.458;11.062;2022-09-09T05:31:00;21.40;99.90
23957;DHT22;12165;45.458;11.062;2022-09-09T05:33:32;21.40;99.90
23957;DHT22;12165;45.458;11.062;2022-09-09T05:36:00;21.40;99.90
23957;DHT22;12165;45.458;11.062;2022-09-09T05:38:28;21.60;99.90
23957;DHT22;12165;45.458;11.062;2022-09-09T05:40:56;21.70;99.90
23957;DHT22;12165;45.458;11.062;2022-09-09T05:43:24;21.90;99.90
23957;DHT22;12165;45.458;11.062;2022-09-09T05:46:01;22.10;99.90
23957;DHT22;12165;45.458;11.062;2022-09-09T05:48:29;22.30;99.90
23957;DHT22;12165;45.458;11.062;2022-09-09T05:50:57;22.20;99.90
23957;DHT22;12165;45.458;11.062;2022-09-09T05:53:24;22.10;99.90
23957;DHT22;12165;45.458;11.062;2022-09-09T05:55:57;22.10;99.90
23957;DHT22;12165;45.458;11.062;2022-09-09T05:58:26;22.20;99.90
23957;DHT22;12165;45.458;11.062;2022-09-09T06:00:59;22.20;99.90
23957;DHT22;12165;45.458;11.062;2022-09-09T06:03:27;22.40;99.90
23957;DHT22;12165;45.458;11.062;2022-09-09T06:05:57;22.50;99.90
23957;DHT22;12165;45.458;11.062;2022-09-09T06:08:26;23.80;99.90
23957;DHT22;12165;45.458;11.062;2022-09-09T06:10:52;25.30;99.90
23957;DHT22;12165;45.458;11.062;2022-09-09T06:13:19;25.60;99.90
23957;DHT22;12165;45.458;11.062;2022-09-09T06:15:52;26.40;99.90
23957;DHT22;12165;45.458;11.062;2022-09-09T06:18:19;25.10;99.90
23957;DHT22;12165;45.458;11.062;2022-09-09T06:23:25;23.80;99.90
23957;DHT22;12165;45.458;11.062;2022-09-09T06:26:00;24.30;99.90
23957;DHT22;12165;45.458;11.062;2022-09-09T06:28:28;27.80;99.90
23957;DHT22;12165;45.458;11.062;2022-09-09T06:30:59;30.00;99.90
23957;DHT22;12165;45.458;11.062;2022-09-09T06:33:26;30.80;99.90
23957;DHT22;12165;45.458;11.062;2022-09-09T06:35:54;30.70;99.90
23957;DHT22;12165;45.458;11.062;2022-09-09T06:38:21;31.10;99.90
23957;DHT22;12165;45.458;11.062;2022-09-09T06:40:55;31.60;99.80
23957;DHT22;12165;45.458;11.062;2022-09-09T06:43:23;32.50;98.40
23957;DHT22;12165;45.458;11.062;2022-09-09T06:45:57;31.90;98.50
23957;DHT22;12165;45.458;11.062;2022-09-09T06:48:24;32.90;97.30
23957;DHT22;12165;45.458;11.062;2022-09-09T06:53:29;33.20;96.40
23957;DHT22;12165;45.458;11.062;2022-09-09T06:55:57;33.50;95.70
23957;DHT22;12165;45.458;11.062;2022-09-09T06:58:23;33.00;96.00
23957;DHT22;12165;45.458;11.062;2022-09-09T07:00:51;33.30;95.30
23957;DHT22;12165;45.458;11.062;2022-09-09T07:03:19;33.40;95.10
23957;DHT22;12165;45.458;11.062;2022-09-09T07:05:53;34.00;94.30
23957;DHT22;12165;45.458;11.062;2022-09-09T07:08:21;33.20;94.60
23957;DHT22;12165;45.458;11.062;2022-09-09T07:10:48;33.30;94.50
23957;DHT22;12165;45.458;11.062;2022-09-09T07:13:15;33.40;94.40
23957;DHT22;12165;45.458;11.062;2022-09-09T07:15:42;33.60;93.80
23957;DHT22;12165;45.458;11.062;2022-09-09T07:18:10;33.10;94.70
23957;DHT22;12165;45.458;11.062;2022-09-09T07:20:37;33.90;93.60
23957;DHT22;12165;45.458;11.062;2022-09-09T07:23:04;33.40;94.00
23957;DHT22;12165;45.458;11.062;2022-09-09T07:25:32;33.30;94.30
23957;DHT22;12165;45.458;11.062;2022-09-09T07:27:59;33.20;94.20
23957;DHT22;12165;45.458;11.062;2022-09-09T07:30:26;33.00;94.10
23957;DHT22;12165;45.458;11.062;2022-09-09T07:32:54;33.30;94.30
23957;DHT22;12165;45.458;11.062;2022-09-09T07:35:23;32.00;96.00
23957;DHT22;12165;45.458;11.062;2022-09-09T07:37:50;30.10;98.70
23957;DHT22;12165;45.458;11.062;2022-09-09T07:40:19;28.50;99.90
23957;DHT22;12165;45.458;11.062;2022-09-09T07:42:48;27.30;99.90
23957;DHT22;12165;45.458;11.062;2022-09-09T07:45:16;26.90;99.90
23957;DHT22;12165;45.458;11.062;2022-09-09T07:47:43;26.90;99.90
23957;DHT22;12165;45.458;11.062;2022-09-09T07:50:10;26.80;99.90
23957;DHT22;12165;45.458;11.062;2022-09-09T07:52:37;26.80;99.90
23957;DHT22;12165;45.458;11.062;2022-09-09T07:55:06;26.90;99.90
23957;DHT22;12165;45.458;11.062;2022-09-09T07:57:33;26.80;99.90
23957;DHT22;12165;45.458;11.062;2022-09-09T08:00:02;26.80;99.90
23957;DHT22;12165;45.458;11.062;2022-09-09T08:02:37;26.90;99.90
23957;DHT22;12165;45.458;11.062;2022-09-09T08:05:04;26.90;99.90
23957;DHT22;12165;45.458;11.062;2022-09-09T08:07:32;26.90;99.90
23957;DHT22;12165;45.458;11.062;2022-09-09T08:09:59;27.10;99.90
23957;DHT22;12165;45.458;11.062;2022-09-09T08:12:30;26.70;99.90
23957;DHT22;12165;45.458;11.062;2022-09-09T08:14:57;26.90;99.90
23957;DHT22;12165;45.458;11.062;2022-09-09T08:17:28;27.30;99.90
23957;DHT22;12165;45.458;11.062;2022-09-09T08:19:56;27.70;99.90
23957;DHT22;12165;45.458;11.062;2022-09-09T08:22:26;28.00;99.90
23957;DHT22;12165;45.458;11.062;2022-09-09T08:24:54;27.90;99.90
23957;DHT22;12165;45.458;11.062;2022-09-09T08:27:21;27.90;99.90
23957;DHT22;12165;45.458;11.062;2022-09-09T08:29:48;27.80;99.90
23957;DHT22;12165;45.458;11.062;2022-09-09T08:32:16;27.90;99.90
23957;DHT22;12165;45.458;11.062;2022-09-09T08:34:44;28.10;99.90
23957;DHT22;12165;45.458;11.062;2022-09-09T08:37:16;28.10;99.90
23957;DHT22;12165;45.458;11.062;2022-09-09T08:39:44;28.10;99.90
23957;DHT22;12165;45.458;11.062;2022-09-09T08:42:56;28.20;99.90
23957;DHT22;12165;45.458;11.062;2022-09-09T08:50:27;28.50;99.90
23957;DHT22;12165;45.458;11.062;2022-09-09T08:58:23;28.50;99.90
23957;DHT22;12165;45.458;11.062;2022-09-09T09:06:01;29.30;99.90
23957;DHT22;12165;45.458;11.062;2022-09-09T09:08:41;29.00;99.90
23957;DHT22;12165;45.458;11.062;2022-09-09T09:11:10;29.30;99.90
23957;DHT22;12165;45.458;11.062;2022-09-09T09:18:42;29.60;99.90
23957;DHT22;12165;45.458;11.062;2022-09-09T09:21:14;29.70;99.90
23957;DHT22;12165;45.458;11.062;2022-09-09T09:23:46;29.50;99.90
23957;DHT22;12165;45.458;11.062;2022-09-09T09:26:15;29.80;99.90
23957;DHT22;12165;45.458;11.062;2022-09-09T09:28:42;30.10;99.90
23957;DHT22;12165;45.458;11.062;2022-09-09T09:31:14;30.10;99.80
23957;DHT22;12165;45.458;11.062;2022-09-09T09:33:54;30.70;99.90
23957;DHT22;12165;45.458;11.062;2022-09-09T09:36:46;30.60;99.10
23957;DHT22;12165;45.458;11.062;2022-09-09T09:39:31;30.70;99.30
23957;DHT22;12165;45.458;11.062;2022-09-09T09:42:22;31.00;98.80
23957;DHT22;12165;45.458;11.062;2022-09-09T09:44:52;31.20;98.50
23957;DHT22;12165;45.458;11.062;2022-09-09T09:47:21;31.30;98.10
23957;DHT22;12165;45.458;11.062;2022-09-09T09:50:18;30.60;98.70
23957;DHT22;12165;45.458;11.062;2022-09-09T09:52:54;29.50;99.80
23957;DHT22;12165;45.458;11.062;2022-09-09T09:55:22;29.50;99.90
23957;DHT22;12165;45.458;11.062;2022-09-09T09:57:50;29.70;99.90
23957;DHT22;12165;45.458;11.062;2022-09-09T10:00:20;30.00;99.80
23957;DHT22;12165;45.458;11.062;2022-09-09T10:02:55;29.80;99.60
23957;DHT22;12165;45.458;11.062;2022-09-09T10:05:29;29.50;99.90
23957;DHT22;12165;45.458;11.062;2022-09-09T10:08:14;28.80;99.90
23957;DHT22;12165;45.458;11.062;2022-09-09T10:27:25;22.20;99.90
23957;DHT22;12165;45.458;11.062;2022-09-09T10:37:58;21.30;99.90
23957;DHT22;12165;45.458;11.062;2022-09-09T10:46:06;21.00;99.90
23957;DHT22;12165;45.458;11.062;2022-09-09T10:56:22;21.10;99.90
23957;DHT22;12165;45.458;11.062;2022-09-09T10:58:54;20.70;99.90
23957;DHT22;12165;45.458;11.062;2022-09-09T11:01:35;20.40;99.90
23957;DHT22;12165;45.458;11.062;2022-09-09T11:04:23;20.40;99.90
23957;DHT22;12165;45.458;11.062;2022-09-09T11:06:53;20.30;99.90
23957;DHT22;12165;45.458;11.062;2022-09-09T11:09:22;20.30;99.90
23957;DHT22;12165;45.458;11.062;2022-09-09T11:17:02;19.80;99.90
23957;DHT22;12165;45.458;11.062;2022-09-09T11:19:34;19.80;99.90
23957;DHT22;12165;45.458;11.062;2022-09-09T11:22:05;20.10;99.90
23957;DHT22;12165;45.458;11.062;2022-09-09T11:25:08;20.20;99.90
23957;DHT22;12165;45.458;11.062;2022-09-09T11:35:27;21.50;99.90
23957;DHT22;12165;45.458;11.062;2022-09-09T11:40:25;21.70;99.90
23957;DHT22;12165;45.458;11.062;2022-09-09T11:43:09;22.00;99.90
23957;DHT22;12165;45.458;11.062;2022-09-09T11:45:39;21.90;99.90
23957;DHT22;12165;45.458;11.062;2022-09-09T11:48:21;22.30;99.90
23957;DHT22;12165;45.458;11.062;2022-09-09T11:50:57;22.50;99.90
23957;DHT22;12165;45.458;11.062;2022-09-09T11:53:24;22.90;99.90
23957;DHT22;12165;45.458;11.062;2022-09-09T11:58:33;23.30;99.90
23957;DHT22;12165;45.458;11.062;2022-09-09T12:01:02;23.50;99.90
23957;DHT22;12165;45.458;11.062;2022-09-09T12:03:40;24.10;99.90
23957;DHT22;12165;45.458;11.062;2022-09-09T12:08:41;24.70;99.90
23957;DHT22;12165;45.458;11.062;2022-09-09T12:11:08;25.40;99.90
23957;DHT22;12165;45.458;11.062;2022-09-09T12:13:35;25.70;99.90
23957;DHT22;12165;45.458;11.062;2022-09-09T12:16:03;25.70;99.90
23957;DHT22;12165;45.458;11.062;2022-09-09T12:23:33;24.40;99.90
23957;DHT22;12165;45.458;11.062;2022-09-09T12:26:13;24.70;99.90
23957;DHT22;12165;45.458;11.062;2022-09-09T12:36:40;26.20;99.90
23957;DHT22;12165;45.458;11.062;2022-09-09T12:39:51;26.20;99.90
23957;DHT22;12165;45.458;11.062;2022-09-09T12:41:57;25.80;99.90
23957;DHT22;12165;45.458;11.062;2022-09-09T12:44:24;26.00;99.90
23957;DHT22;12165;45.458;11.062;2022-09-09T12:46:51;26.00;99.90
23957;DHT22;12165;45.458;11.062;2022-09-09T12:49:24;26.40;99.90
23957;DHT22;12165;45.458;11.062;2022-09-09T12:51:53;26.80;99.90
23957;DHT22;12165;45.458;11.062;2022-09-09T12:54:20;26.70;99.90
23957;DHT22;12165;45.458;11.062;2022-09-09T12:56:47;26.80;99.90
23957;DHT22;12165;45.458;11.062;2022-09-09T12:59:25;26.80;99.90
23957;DHT22;12165;45.458;11.062;2022-09-09T13:01:56;26.80;99.90
23957;DHT22;12165;45.458;11.062;2022-09-09T13:04:23;26.90;99.90
23957;DHT22;12165;45.458;11.062;2022-09-09T13:06:50;27.20;99.90
23957;DHT22;12165;45.458;11.062;2022-09-09T13:09:18;27.30;97.90
23957;DHT22;12165;45.458;11.062;2022-09-09T13:11:47;27.40;94.40
23957;DHT22;12165;45.458;11.062;2022-09-09T13:14:19;27.60;95.60
23957;DHT22;12165;45.458;11.062;2022-09-09T13:16:56;27.70;96.30
23957;DHT22;12165;45.458;11.062;2022-09-09T13:19:23;28.00;95.90
23957;DHT22;12165;45.458;11.062;2022-09-09T13:21:54;28.20;94.20
23957;DHT22;12165;45.458;11.062;2022-09-09T13:24:25;28.20;93.20
23957;DHT22;12165;45.458;11.062;2022-09-09T13:26:58;28.00;95.40
23957;DHT22;12165;45.458;11.062;2022-09-09T13:29:28;27.90;94.80
23957;DHT22;12165;45.458;11.062;2022-09-09T13:32:05;27.70;95.00
23957;DHT22;12165;45.458;11.062;2022-09-09T13:34:34;27.40;95.50
23957;DHT22;12165;45.458;11.062;2022-09-09T13:37:16;27.50;95.10
23957;DHT22;12165;45.458;11.062;2022-09-09T13:39:50;27.70;95.90
23957;DHT22;12165;45.458;11.062;2022-09-09T13:42:21;27.90;96.10
23957;DHT22;12165;45.458;11.062;2022-09-09T13:44:51;27.90;96.60
23957;DHT22;12165;45.458;11.062;2022-09-09T13:47:19;28.00;97.50
23957;DHT22;12165;45.458;11.062;2022-09-09T13:49:46;28.10;98.50
23957;DHT22;12165;45.458;11.062;2022-09-09T13:52:14;27.80;96.70
23957;DHT22;12165;45.458;11.062;2022-09-09T13:54:42;27.80;97.80
23957;DHT22;12165;45.458;11.062;2022-09-09T13:57:19;28.00;98.20
23957;DHT22;12165;45.458;11.062;2022-09-09T13:59:46;27.70;99.90
23957;DHT22;12165;45.458;11.062;2022-09-09T14:02:30;27.40;99.90
23957;DHT22;12165;45.458;11.062;2022-09-09T14:04:57;27.20;99.90
23957;DHT22;12165;45.458;11.062;2022-09-09T14:07:24;27.20;99.90
23957;DHT22;12165;45.458;11.062;2022-09-09T14:09:51;27.20;99.90
23957;DHT22;12165;45.458;11.062;2022-09-09T14:12:19;27.00;99.90
23957;DHT22;12165;45.458;11.062;2022-09-09T14:14:46;27.10;99.90
23957;DHT22;12165;45.458;11.062;2022-09-09T14:17:13;27.10;99.90
23957;DHT22;12165;45.458;11.062;2022-09-09T14:19:41;26.90;99.90
23957;DHT22;12165;45.458;11.062;2022-09-09T14:22:09;26.60;99.90
23957;DHT22;12165;45.458;11.062;2022-09-09T14:24:36;26.80;99.90
23957;DHT22;12165;45.458;11.062;2022-09-09T14:27:02;26.80;99.90
23957;DHT22;12165;45.458;11.062;2022-09-09T14:29:29;27.00;99.90
23957;DHT22;12165;45.458;11.062;2022-09-09T14:31:56;27.20;99.90
23957;DHT22;12165;45.458;11.062;2022-09-09T14:34:23;27.10;99.90
23957;DHT22;12165;45.458;11.062;2022-09-09T14:36:49;27.20;99.90
23957;DHT22;12165;45.458;11.062;2022-09-09T14:39:17;27.30;99.90
23957;DHT22;12165;45.458;11.062;2022-09-09T14:41:44;27.10;99.90
23957;DHT22;12165;45.458;11.062;2022-09-09T14:44:12;27.00;99.90
23957;DHT22;12165;45.458;11.062;2022-09-09T14:46:38;27.10;99.90
23957;DHT22;12165;45.458;11.062;2022-09-09T14:49:05;27.10;99.90
23957;DHT22;12165;45.458;11.062;2022-09-09T14:51:32;27.00;99.90
23957;DHT22;12165;45.458;11.062;2022-09-09T14:53:59;27.10;99.90
23957;DHT22;12165;45.458;11.062;2022-09-09T14:56:27;27.20;99.90
23957;DHT22;12165;45.458;11.062;2022-09-09T14:58:55;27.00;99.90
23957;DHT22;12165;45.458;11.062;2022-09-09T15:01:22;27.00;99.90
23957;DHT22;12165;45.458;11.062;2022-09-09T15:03:51;26.90;99.90
23957;DHT22;12165;45.458;11.062;2022-09-09T15:06:19;26.70;99.90
23957;DHT22;12165;45.458;11.062;2022-09-09T15:08:45;26.80;99.90
23957;DHT22;12165;45.458;11.062;2022-09-09T15:11:13;26.60;99.90
23957;DHT22;12165;45.458;11.062;2022-09-09T15:13:41;26.70;99.90
23957;DHT22;12165;45.458;11.062;2022-09-09T15:16:10;26.70;99.90
23957;DHT22;12165;45.458;11.062;2022-09-09T15:18:37;26.70;99.90
23957;DHT22;12165;45.458;11.062;2022-09-09T15:21:06;26.70;99.90
23957;DHT22;12165;45.458;11.062;2022-09-09T15:23:35;26.70;99.90
23957;DHT22;12165;45.458;11.062;2022-09-09T15:26:02;26.70;99.90
23957;DHT22;12165;45.458;11.062;2022-09-09T15:28:29;26.50;99.90
23957;DHT22;12165;45.458;11.062;2022-09-09T15:30:55;26.50;99.90
23957;DHT22;12165;45.458;11.062;2022-09-09T15:33:23;26.30;99.90
23957;DHT22;12165;45.458;11.062;2022-09-09T15:35:50;26.30;99.90
23957;DHT22;12165;45.458;11.062;2022-09-09T15:38:18;26.20;99.90
23957;DHT22;12165;45.458;11.062;2022-09-09T15:40:52;26.20;99.90
23957;DHT22;12165;45.458;11.062;2022-09-09T15:43:21;26.20;99.90
23957;DHT22;12165;45.458;11.062;2022-09-09T15:45:52;26.10;99.90
23957;DHT22;12165;45.458;11.062;2022-09-09T15:48:22;26.20;99.90
23957;DHT22;12165;45.458;11.062;2022-09-09T15:51:02;26.20;99.90
23957;DHT22;12165;45.458;11.062;2022-09-09T15:53:53;26.20;99.90
23957;DHT22;12165;45.458;11.062;2022-09-09T15:56:21;26.10;99.90
23957;DHT22;12165;45.458;11.062;2022-09-09T15:58:48;26.00;99.90
23957;DHT22;12165;45.458;11.062;2022-09-09T16:01:16;26.00;99.90
23957;DHT22;12165;45.458;11.062;2022-09-09T16:03:43;25.90;99.90
23957;DHT22;12165;45.458;11.062;2022-09-09T16:06:13;25.90;99.90
23957;DHT22;12165;45.458;11.062;2022-09-09T16:08:41;25.80;99.90
23957;DHT22;12165;45.458;11.062;2022-09-09T16:11:10;25.70;99.90
23957;DHT22;12165;45.458;11.062;2022-09-09T16:13:39;25.70;99.90
23957;DHT22;12165;45.458;11.062;2022-09-09T16:16:06;25.60;99.90
23957;DHT22;12165;45.458;11.062;2022-09-09T16:18:37;25.60;99.90
23957;DHT22;12165;45.458;11.062;2022-09-09T16:21:04;25.60;99.90
23957;DHT22;12165;45.458;11.062;2022-09-09T16:23:31;25.50;99.90
23957;DHT22;12165;45.458;11.062;2022-09-09T16:25:59;25.50;99.90
23957;DHT22;12165;45.458;11.062;2022-09-09T16:28:31;25.40;99.90
23957;DHT22;12165;45.458;11.062;2022-09-09T16:30:57;25.30;99.90
23957;DHT22;12165;45.458;11.062;2022-09-09T16:33:24;25.30;99.90
23957;DHT22;12165;45.458;11.062;2022-09-09T16:35:52;25.20;99.90
23957;DHT22;12165;45.458;11.062;2022-09-09T16:38:19;25.20;99.90
23957;DHT22;12165;45.458;11.062;2022-09-09T16:40:49;25.10;99.90
23957;DHT22;12165;45.458;11.062;2022-09-09T16:43:16;25.10;99.90
23957;DHT22;12165;45.458;11.062;2022-09-09T16:45:43;24.90;99.90
23957;DHT22;12165;45.458;11.062;2022-09-09T16:48:11;24.90;99.90
23957;DHT22;12165;45.458;11.062;2022-09-09T16:50:38;24.80;99.90
23957;DHT22;12165;45.458;11.062;2022-09-09T16:53:05;24.70;99.90
23957;DHT22;12165;45.458;11.062;2022-09-09T16:55:38;24.70;99.90
23957;DHT22;12165;45.458;11.062;2022-09-09T16:58:07;24.70;99.90
23957;DHT22;12165;45.458;11.062;2022-09-09T17:00:34;24.50;99.90
23957;DHT22;12165;45.458;11.062;2022-09-09T17:03:00;24.40;99.90
23957;DHT22;12165;45.458;11.062;2022-09-09T17:05:29;24.40;99.90
23957;DHT22;12165;45.458;11.062;2022-09-09T17:07:55;24.30;99.90
23957;DHT22;12165;45.458;11.062;2022-09-09T17:10:25;24.20;99.90
23957;DHT22;12165;45.458;11.062;2022-09-09T17:12:52;24.10;99.90
23957;DHT22;12165;45.458;11.062;2022-09-09T17:15:18;23.90;99.90
23957;DHT22;12165;45.458;11.062;2022-09-09T17:17:45;23.90;99.90
23957;DHT22;12165;45.458;11.062;2022-09-09T17:20:15;23.80;99.90
23957;DHT22;12165;45.458;11.062;2022-09-09T17:22:43;23.70;99.90
23957;DHT22;12165;45.458;11.062;2022-09-09T17:25:09;23.60;99.90
23957;DHT22;12165;45.458;11.062;2022-09-09T17:27:36;23.50;99.90
23957;DHT22;12165;45.458;11.062;2022-09-09T17:30:04;23.50;99.90
23957;DHT22;12165;45.458;11.062;2022-09-09T17:32:31;23.40;99.90
23957;DHT22;12165;45.458;11.062;2022-09-09T17:34:58;23.40;99.90
23957;DHT22;12165;45.458;11.062;2022-09-09T17:37:24;23.30;99.90
23957;DHT22;12165;45.458;11.062;2022-09-09T17:39:51;23.30;99.90
23957;DHT22;12165;45.458;11.062;2022-09-09T17:42:18;23.30;99.90